createdAt,value
2022-07-28T00:00:51.428Z,14.40
2022-07-28T00:03:18.495Z,14.40
2022-07-28T00:05:50.124Z,14.40
2022-07-28T00:08:19.670Z,14.40
2022-07-28T00:10:48.688Z,14.30
2022-07-28T00:13:15.713Z,14.20
2022-07-28T00:15:42.542Z,14.20
2022-07-28T00:18:11.949Z,14.20
2022-07-28T00:20:41.220Z,14.20
2022-07-28T00:23:08.008Z,14.10
2022-07-28T00:25:34.842Z,14.10
2022-07-28T00:28:01.627Z,14.10
2022-07-28T00:30:31.582Z,14.00
2022-07-28T00:32:58.439Z,14.00
2022-07-28T00:35:31.069Z,13.90
2022-07-28T00:37:59.088Z,13.90
2022-07-28T00:40:47.219Z,13.80
2022-07-28T00:43:17.018Z,13.80
2022-07-28T00:45:43.955Z,13.70
2022-07-28T00:48:13.009Z,13.70
2022-07-28T00:50:40.889Z,13.60
2022-07-28T00:53:08.831Z,13.60
2022-07-28T00:56:03.669Z,13.40
2022-07-28T00:58:22.989Z,13.50
2022-07-28T01:00:52.248Z,13.40
2022-07-28T01:03:19.539Z,13.30
2022-07-28T01:05:56.699Z,13.30
2022-07-28T01:08:48.146Z,13.30
2022-07-28T01:11:24.350Z,13.30
2022-07-28T01:14:07.465Z,13.20
2022-07-28T01:16:41.327Z,13.10
2022-07-28T01:19:26.515Z,13.00
2022-07-28T01:21:58.048Z,13.00
2022-07-28T01:24:31.038Z,12.90
2022-07-28T01:27:04.713Z,13.00
2022-07-28T01:29:49.164Z,13.00
2022-07-28T01:32:21.177Z,12.90
2022-07-28T01:34:58.814Z,12.80
2022-07-28T01:37:29.213Z,12.70
2022-07-28T01:40:01.270Z,12.70
2022-07-28T01:42:37.192Z,12.60
2022-07-28T01:45:05.356Z,12.60
2022-07-28T01:47:34.697Z,12.60
2022-07-28T01:50:06.597Z,12.60
2022-07-28T01:52:35.329Z,12.60
2022-07-28T01:55:03.472Z,12.50
2022-07-28T01:57:34.071Z,12.50
2022-07-28T02:00:06.031Z,12.40
2022-07-28T02:02:36.770Z,12.30
2022-07-28T02:05:05.578Z,12.20
2022-07-28T02:07:35.327Z,12.20
2022-07-28T02:10:04.747Z,12.20
2022-07-28T02:12:37.183Z,12.10
2022-07-28T02:15:06.736Z,12.00
2022-07-28T02:17:35.189Z,12.00
2022-07-28T02:20:05.114Z,11.90
2022-07-28T02:22:34.113Z,11.90
2022-07-28T02:25:01.631Z,11.80
2022-07-28T02:27:48.078Z,11.90
2022-07-28T02:30:19.663Z,11.80
2022-07-28T02:33:01.367Z,11.70
2022-07-28T02:35:38.706Z,11.70
2022-07-28T02:38:19.103Z,11.70
2022-07-28T02:40:51.842Z,11.60
2022-07-28T02:43:25.368Z,11.60
2022-07-28T02:45:54.406Z,11.50
2022-07-28T02:48:32.230Z,11.50
2022-07-28T02:51:01.005Z,11.50
2022-07-28T02:53:31.638Z,11.60
2022-07-28T02:56:03.104Z,11.60
2022-07-28T02:58:34.043Z,11.80
2022-07-28T03:01:01.426Z,11.90
2022-07-28T03:03:28.912Z,11.90
2022-07-28T03:06:00.508Z,11.90
2022-07-28T03:08:27.557Z,11.90
2022-07-28T03:11:13.184Z,11.90
2022-07-28T03:13:42.683Z,11.80
2022-07-28T03:16:09.911Z,11.80
2022-07-28T03:18:36.942Z,11.70
2022-07-28T03:21:04.122Z,11.70
2022-07-28T03:23:39.766Z,11.60
2022-07-28T03:26:15.449Z,11.50
2022-07-28T03:28:43.310Z,11.50
2022-07-28T03:31:12.245Z,11.50
2022-07-28T03:33:41.960Z,11.50
2022-07-28T03:36:14.750Z,11.50
2022-07-28T03:38:46.116Z,11.50
2022-07-28T03:41:15.019Z,11.50
2022-07-28T03:43:43.032Z,11.40
2022-07-28T03:46:13.425Z,11.40
2022-07-28T03:48:40.583Z,11.40
2022-07-28T03:51:07.644Z,11.40
2022-07-28T03:53:34.736Z,11.40
2022-07-28T03:56:03.290Z,11.50
2022-07-28T03:58:30.869Z,11.40
2022-07-28T04:01:00.495Z,11.40
2022-07-28T04:03:42.837Z,11.50
2022-07-28T04:06:12.968Z,11.50
2022-07-28T04:08:42.124Z,11.50
2022-07-28T04:11:08.989Z,11.50
2022-07-28T04:13:37.947Z,11.50
2022-07-28T04:16:06.847Z,11.60
2022-07-28T04:18:33.862Z,11.60
2022-07-28T04:21:00.879Z,11.60
2022-07-28T04:23:28.274Z,11.60
2022-07-28T04:25:55.392Z,11.70
2022-07-28T04:28:22.490Z,11.70
2022-07-28T04:30:49.252Z,11.80
2022-07-28T04:33:18.573Z,11.80
2022-07-28T04:35:47.021Z,11.90
2022-07-28T04:38:18.064Z,11.90
2022-07-28T04:40:45.353Z,12.00
2022-07-28T04:43:12.157Z,12.00
2022-07-28T04:45:39.349Z,12.00
2022-07-28T04:48:13.499Z,12.10
2022-07-28T04:50:42.150Z,12.20
2022-07-28T04:53:12.164Z,12.20
2022-07-28T04:55:41.101Z,12.30
2022-07-28T04:58:08.706Z,12.40
2022-07-28T05:00:41.109Z,12.60
2022-07-28T05:03:08.026Z,12.70
2022-07-28T05:05:34.837Z,12.70
2022-07-28T05:08:01.636Z,12.70
2022-07-28T05:10:28.558Z,12.80
2022-07-28T05:12:55.440Z,12.90
2022-07-28T05:15:22.856Z,13.00
2022-07-28T05:17:50.126Z,13.00
2022-07-28T05:20:17.590Z,13.10
2022-07-28T05:22:50.916Z,13.20
2022-07-28T05:25:23.537Z,13.20
2022-07-28T05:27:51.823Z,13.30
2022-07-28T05:30:19.790Z,13.30
2022-07-28T05:32:46.783Z,13.50
2022-07-28T05:35:13.625Z,13.50
2022-07-28T05:37:40.494Z,13.70
2022-07-28T05:40:15.596Z,13.70
2022-07-28T05:42:47.708Z,13.70
2022-07-28T05:45:19.176Z,13.80
2022-07-28T05:47:46.994Z,14.00
2022-07-28T05:50:15.472Z,14.00
2022-07-28T05:52:42.666Z,14.00
2022-07-28T05:55:10.040Z,14.10
2022-07-28T05:57:40.526Z,14.30
2022-07-28T06:00:16.417Z,14.30
2022-07-28T06:02:49.256Z,14.40
2022-07-28T06:05:23.322Z,14.40
2022-07-28T06:07:52.650Z,14.40
2022-07-28T06:10:24.050Z,14.40
2022-07-28T06:12:54.897Z,14.50
2022-07-28T06:15:28.279Z,14.60
2022-07-28T06:17:55.706Z,14.60
2022-07-28T06:20:25.593Z,14.70
2022-07-28T06:22:56.700Z,14.70
2022-07-28T06:25:26.041Z,14.80
2022-07-28T06:27:56.167Z,14.90
2022-07-28T06:30:25.875Z,15.00
2022-07-28T06:32:52.881Z,15.00
2022-07-28T06:35:24.828Z,15.10
2022-07-28T06:37:55.318Z,15.20
2022-07-28T06:40:22.266Z,15.20
2022-07-28T06:42:49.971Z,15.30
2022-07-28T06:45:21.238Z,15.40
2022-07-28T06:47:55.939Z,15.60
2022-07-28T06:50:25.574Z,15.70
2022-07-28T06:52:56.703Z,15.90
2022-07-28T06:55:23.617Z,16.00
2022-07-28T06:57:50.852Z,16.20
2022-07-28T07:00:17.928Z,16.30
2022-07-28T07:02:44.755Z,16.30
2022-07-28T07:05:17.430Z,16.40
2022-07-28T07:07:46.373Z,16.50
2022-07-28T07:10:13.194Z,16.60
2022-07-28T07:12:40.297Z,16.60
2022-07-28T07:15:08.583Z,16.60
2022-07-28T07:17:37.407Z,16.70
2022-07-28T07:20:06.855Z,16.70
2022-07-28T07:22:33.791Z,16.70
2022-07-28T07:25:13.063Z,16.80
2022-07-28T07:27:40.043Z,16.80
2022-07-28T07:30:10.705Z,16.90
2022-07-28T07:32:43.065Z,16.90
2022-07-28T07:35:12.682Z,17.00
2022-07-28T07:37:39.626Z,17.20
2022-07-28T07:40:07.386Z,17.30
2022-07-28T07:42:34.371Z,17.40
2022-07-28T07:45:01.682Z,17.60
2022-07-28T07:47:28.995Z,17.70
2022-07-28T07:49:55.773Z,17.80
2022-07-28T07:52:22.565Z,17.80
2022-07-28T07:54:51.476Z,17.80
2022-07-28T07:57:18.370Z,17.90
2022-07-28T07:59:45.278Z,18.20
2022-07-28T08:02:12.173Z,18.30
2022-07-28T08:04:39.196Z,18.40
2022-07-28T08:07:14.079Z,18.50
2022-07-28T08:09:41.360Z,18.60
2022-07-28T08:12:08.729Z,18.70
2022-07-28T08:14:37.681Z,18.90
2022-07-28T08:17:04.619Z,19.10
2022-07-28T08:19:31.367Z,19.10
2022-07-28T08:21:58.342Z,19.00
2022-07-28T08:24:33.736Z,19.40
2022-07-28T08:27:05.119Z,19.50
2022-07-28T08:29:32.822Z,19.70
2022-07-28T08:32:01.427Z,19.60
2022-07-28T08:34:33.362Z,19.60
2022-07-28T08:37:05.438Z,19.60
2022-07-28T08:39:33.615Z,19.50
2022-07-28T08:42:38.431Z,19.60
2022-07-28T08:45:10.550Z,19.70
2022-07-28T08:47:51.909Z,20.00
2022-07-28T08:50:27.634Z,20.00
2022-07-28T08:52:55.504Z,20.10
2022-07-28T08:55:31.811Z,20.20
2022-07-28T08:58:02.992Z,20.40
2022-07-28T09:00:30.383Z,20.60
2022-07-28T09:03:03.413Z,20.40
2022-07-28T09:05:31.095Z,20.50
2022-07-28T09:07:59.484Z,20.30
2022-07-28T09:10:26.628Z,20.60
2022-07-28T09:12:53.782Z,20.50
2022-07-28T09:15:22.891Z,20.10
2022-07-28T09:17:49.692Z,20.00
2022-07-28T09:20:20.102Z,20.20
2022-07-28T09:23:42.873Z,20.10
2022-07-28T09:26:11.014Z,20.30
2022-07-28T09:28:56.951Z,20.30
2022-07-28T09:31:30.462Z,20.40
2022-07-28T09:34:06.498Z,20.70
2022-07-28T09:36:41.507Z,21.10
2022-07-28T09:39:11.052Z,21.40
2022-07-28T09:41:55.656Z,21.60
2022-07-28T09:44:23.861Z,21.60
2022-07-28T09:46:51.628Z,21.60
2022-07-28T09:49:26.421Z,21.20
2022-07-28T09:52:03.630Z,21.10
2022-07-28T09:54:30.528Z,21.00
2022-07-28T09:56:57.496Z,20.90
2022-07-28T09:59:24.729Z,21.00
2022-07-28T10:01:56.531Z,21.10
2022-07-28T10:04:51.003Z,20.80
2022-07-28T10:07:18.078Z,20.90
2022-07-28T10:09:57.511Z,21.00
2022-07-28T10:12:43.025Z,20.70
2022-07-28T10:15:34.409Z,20.80
2022-07-28T10:18:04.977Z,20.80
2022-07-28T10:20:33.176Z,20.80
2022-07-28T10:23:06.047Z,20.90
2022-07-28T10:25:34.917Z,21.00
2022-07-28T10:28:05.945Z,20.70
2022-07-28T10:30:39.808Z,20.60
2022-07-28T10:33:14.345Z,20.60
2022-07-28T10:35:51.010Z,20.70
2022-07-28T10:38:24.845Z,20.50
2022-07-28T10:40:56.391Z,20.70
2022-07-28T10:43:25.713Z,20.90
2022-07-28T10:46:12.953Z,21.10
2022-07-28T10:48:40.847Z,21.10
2022-07-28T10:51:11.438Z,21.30
2022-07-28T10:53:54.545Z,21.30
2022-07-28T10:56:58.988Z,21.30
2022-07-28T10:59:34.909Z,21.30
2022-07-28T11:02:01.790Z,21.00
2022-07-28T11:04:41.706Z,21.00
2022-07-28T11:07:14.506Z,20.80
2022-07-28T11:09:41.808Z,20.80
2022-07-28T11:12:15.370Z,20.60
2022-07-28T11:14:46.820Z,20.70
2022-07-28T11:17:16.249Z,20.60
2022-07-28T11:19:55.927Z,20.80
2022-07-28T11:22:37.431Z,21.20
2022-07-28T11:25:18.818Z,21.40
2022-07-28T11:27:51.476Z,21.90
2022-07-28T11:30:28.899Z,22.20
2022-07-28T11:32:56.662Z,22.60
2022-07-28T11:35:55.903Z,22.90
2022-07-28T11:38:23.565Z,23.10
2022-07-28T11:40:56.221Z,23.00
2022-07-28T11:43:37.362Z,22.90
2022-07-28T11:46:07.665Z,22.60
2022-07-28T11:48:39.974Z,22.70
2022-07-28T11:51:06.891Z,22.10
2022-07-28T11:53:52.666Z,21.90
2022-07-28T11:56:31.813Z,22.00
2022-07-28T11:59:06.893Z,22.00
2022-07-28T12:01:36.848Z,22.00
2022-07-28T12:04:17.514Z,22.30
2022-07-28T12:06:51.164Z,22.40
2022-07-28T12:09:25.123Z,22.80
2022-07-28T12:11:55.361Z,23.30
2022-07-28T12:14:22.770Z,23.80
2022-07-28T12:16:53.445Z,23.60
2022-07-28T12:19:20.753Z,24.00
2022-07-28T12:21:56.677Z,24.10
2022-07-28T12:24:32.118Z,24.60
2022-07-28T12:27:14.725Z,24.70
2022-07-28T12:29:42.455Z,25.70
2022-07-28T12:32:10.246Z,26.00
2022-07-28T12:34:39.974Z,26.50
2022-07-28T12:37:12.175Z,28.20
2022-07-28T12:39:42.039Z,29.70
2022-07-28T12:42:13.331Z,36.00
2022-07-28T12:44:48.760Z,39.20
2022-07-28T12:47:25.344Z,43.10
2022-07-28T12:50:15.443Z,44.90
2022-07-28T12:53:03.826Z,45.60
2022-07-28T12:55:32.224Z,47.80
2022-07-28T12:57:59.533Z,49.40
2022-07-28T13:00:34.365Z,50.90
2022-07-28T13:03:22.202Z,50.10
2022-07-28T13:06:06.929Z,49.80
2022-07-28T13:08:46.405Z,50.00
2022-07-28T13:14:08.441Z,55.90
2022-07-28T13:16:36.642Z,58.40
2022-07-28T13:19:10.036Z,57.70
2022-07-28T13:21:56.889Z,55.30
2022-07-28T13:24:30.373Z,50.00
2022-07-28T13:26:59.180Z,45.00
2022-07-28T13:29:26.175Z,41.20
2022-07-28T13:31:54.772Z,39.40
2022-07-28T13:34:21.953Z,41.30
2022-07-28T13:36:52.330Z,46.00
2022-07-28T13:39:19.302Z,50.90
2022-07-28T13:41:58.273Z,54.00
2022-07-28T13:44:30.725Z,55.40
2022-07-28T13:46:58.981Z,57.20
2022-07-28T13:49:29.266Z,56.70
2022-07-28T13:51:56.230Z,56.70
2022-07-28T13:54:24.684Z,55.60
2022-07-28T13:57:13.699Z,57.60
2022-07-28T13:59:41.008Z,58.30
2022-07-28T14:02:15.919Z,57.90
2022-07-28T14:04:49.006Z,59.10
2022-07-28T14:07:20.659Z,59.60
2022-07-28T14:09:50.950Z,59.80
2022-07-28T14:12:18.482Z,58.40
2022-07-28T14:14:48.794Z,58.90
2022-07-28T14:20:10.409Z,59.10
2022-07-28T14:22:37.328Z,58.70
2022-07-28T14:25:04.482Z,58.00
2022-07-28T14:27:34.342Z,57.30
2022-07-28T14:30:03.396Z,55.70
2022-07-28T14:32:33.254Z,54.60
2022-07-28T14:35:02.726Z,55.40
2022-07-28T14:37:36.315Z,55.80
2022-07-28T14:40:15.271Z,54.90
2022-07-28T14:42:44.651Z,47.70
2022-07-28T14:45:12.504Z,43.50
2022-07-28T14:47:45.004Z,39.80
2022-07-28T14:50:13.388Z,36.90
2022-07-28T14:52:40.409Z,34.60
2022-07-28T14:55:07.706Z,35.30
2022-07-28T14:57:50.200Z,33.30
2022-07-28T15:00:20.357Z,31.30
2022-07-28T15:02:47.995Z,32.00
2022-07-28T15:05:15.038Z,35.00
2022-07-28T15:07:44.465Z,34.30
2022-07-28T15:10:11.651Z,32.50
2022-07-28T15:12:38.467Z,32.50
2022-07-28T15:15:06.084Z,32.80
2022-07-28T15:17:37.431Z,31.80
2022-07-28T15:20:06.788Z,29.60
2022-07-28T15:22:34.404Z,28.20
2022-07-28T15:25:01.182Z,27.00
2022-07-28T15:27:33.757Z,26.30
2022-07-28T15:30:03.886Z,26.10
2022-07-28T15:32:39.861Z,25.90
2022-07-28T15:35:22.171Z,25.80
2022-07-28T15:37:49.076Z,25.70
2022-07-28T15:40:16.900Z,25.30
2022-07-28T15:42:46.292Z,26.80
2022-07-28T15:45:13.145Z,27.90
2022-07-28T15:47:39.989Z,28.00
2022-07-28T15:50:09.147Z,27.90
2022-07-28T15:52:36.396Z,28.60
2022-07-28T15:55:03.474Z,32.80
2022-07-28T15:57:38.018Z,35.30
2022-07-28T16:00:06.377Z,34.70
2022-07-28T16:02:35.729Z,32.60
2022-07-28T16:05:05.607Z,30.80
2022-07-28T16:07:35.079Z,29.40
2022-07-28T16:10:03.117Z,28.70
2022-07-28T16:12:33.348Z,27.80
2022-07-28T16:15:00.292Z,28.60
2022-07-28T16:17:29.655Z,28.20
2022-07-28T16:19:58.696Z,27.30
2022-07-28T16:22:29.561Z,26.60
2022-07-28T16:24:56.318Z,26.20
2022-07-28T16:27:25.339Z,26.10
2022-07-28T16:29:52.262Z,26.50
2022-07-28T16:32:19.078Z,26.30
2022-07-28T16:34:47.888Z,26.10
2022-07-28T16:37:19.083Z,25.50
2022-07-28T16:39:46.530Z,25.20
2022-07-28T16:42:13.351Z,24.90
2022-07-28T16:44:42.638Z,24.60
2022-07-28T16:47:09.723Z,24.50
2022-07-28T16:49:38.053Z,25.60
2022-07-28T16:52:07.767Z,25.50
2022-07-28T16:54:35.306Z,25.10
2022-07-28T16:57:02.240Z,24.80
2022-07-28T16:59:37.592Z,24.40
2022-07-28T17:02:16.027Z,24.20
2022-07-28T17:04:42.846Z,24.00
2022-07-28T17:07:09.782Z,23.90
2022-07-28T17:09:36.604Z,23.90
2022-07-28T17:12:03.624Z,23.70
2022-07-28T17:14:32.924Z,23.50
2022-07-28T17:16:59.734Z,23.30
2022-07-28T17:19:26.615Z,23.20
2022-07-28T17:22:04.841Z,23.10
2022-07-28T17:24:31.939Z,22.90
2022-07-28T17:29:48.200Z,22.80
2022-07-28T17:32:14.954Z,22.60
2022-07-28T17:34:44.661Z,22.50
2022-07-28T17:37:11.542Z,22.40
2022-07-28T17:39:40.838Z,22.30
2022-07-28T17:42:07.704Z,22.30
2022-07-28T17:44:37.667Z,22.20
2022-07-28T17:47:04.829Z,22.10
2022-07-28T17:49:31.807Z,22.00
2022-07-28T17:51:58.739Z,22.00
2022-07-28T17:54:26.059Z,21.90
2022-07-28T17:56:53.043Z,21.80
2022-07-28T17:59:20.460Z,21.80
2022-07-28T18:01:49.743Z,21.80
2022-07-28T18:04:19.430Z,21.70
2022-07-28T18:06:49.080Z,21.70
2022-07-28T18:09:15.872Z,21.60
2022-07-28T18:11:57.074Z,21.60
2022-07-28T18:14:26.855Z,21.50
2022-07-28T18:16:56.689Z,21.50
2022-07-28T18:19:23.549Z,21.50
2022-07-28T18:21:50.762Z,21.40
2022-07-28T18:24:18.582Z,21.30
2022-07-28T18:26:45.768Z,21.20
2022-07-28T18:29:12.758Z,21.10
2022-07-28T18:31:45.916Z,21.00
2022-07-28T18:34:13.728Z,20.90
2022-07-28T18:36:45.870Z,20.70
2022-07-28T18:39:15.435Z,20.60
2022-07-28T18:41:46.982Z,20.50
2022-07-28T18:44:16.440Z,20.40
2022-07-28T18:46:44.011Z,20.20
2022-07-28T18:49:13.244Z,20.10
2022-07-28T18:51:40.112Z,20.00
2022-07-28T18:54:18.766Z,19.90
2022-07-28T18:56:47.791Z,19.70
2022-07-28T18:59:14.613Z,19.60
2022-07-28T19:01:41.482Z,19.50
2022-07-28T19:04:08.453Z,19.40
2022-07-28T19:06:36.418Z,19.30
2022-07-28T19:09:05.479Z,19.10
2022-07-28T19:11:33.439Z,19.20
2022-07-28T19:14:02.934Z,19.20
2022-07-28T19:16:33.261Z,19.10
2022-07-28T19:19:00.091Z,19.00
2022-07-28T19:21:26.969Z,19.00
2022-07-28T19:23:53.847Z,18.90
2022-07-28T19:26:23.885Z,19.00
2022-07-28T19:28:51.338Z,19.00
2022-07-28T19:31:18.257Z,19.00
2022-07-28T19:33:45.167Z,18.80
2022-07-28T19:36:15.836Z,18.70
2022-07-28T19:38:42.842Z,18.70
2022-07-28T19:41:11.561Z,18.70
2022-07-28T19:43:38.591Z,18.60
2022-07-28T19:46:07.886Z,18.40
2022-07-28T19:48:35.028Z,18.40
2022-07-28T19:51:02.225Z,18.30
2022-07-28T19:53:35.858Z,18.30
2022-07-28T19:56:08.800Z,18.30
2022-07-28T19:58:39.550Z,18.20
2022-07-28T20:01:11.446Z,18.10
2022-07-28T20:04:02.670Z,18.00
2022-07-28T20:06:29.971Z,18.00
2022-07-28T20:08:57.340Z,17.90
2022-07-28T20:11:24.314Z,17.90
2022-07-28T20:13:51.156Z,17.80
2022-07-28T20:16:18.299Z,17.80
2022-07-28T20:18:45.251Z,17.90
2022-07-28T20:21:12.115Z,17.90
2022-07-28T20:23:40.898Z,17.80
2022-07-28T20:26:09.365Z,17.70
2022-07-28T20:28:38.797Z,17.60
2022-07-28T20:31:07.442Z,17.60
2022-07-28T20:33:36.625Z,17.60
2022-07-28T20:36:03.628Z,17.60
2022-07-28T20:38:30.452Z,17.60
2022-07-28T20:40:57.215Z,17.60
2022-07-28T20:43:23.976Z,17.60
2022-07-28T20:46:05.998Z,17.50
2022-07-28T20:48:35.782Z,17.40
2022-07-28T20:51:02.724Z,17.40
2022-07-28T20:53:29.615Z,17.30
2022-07-28T20:55:56.511Z,17.20
2022-07-28T20:58:23.967Z,17.10
2022-07-28T21:00:53.404Z,17.00
2022-07-28T21:03:21.393Z,17.00
2022-07-28T21:05:50.379Z,16.90
2022-07-28T21:08:19.557Z,16.80
2022-07-28T21:10:46.469Z,16.80
2022-07-28T21:13:13.439Z,16.80
2022-07-28T21:15:40.361Z,16.90
2022-07-28T21:18:07.325Z,16.90
2022-07-28T21:20:34.239Z,17.00
2022-07-28T21:23:01.264Z,17.10
2022-07-28T21:25:31.597Z,17.10
2022-07-28T21:28:18.269Z,17.20
2022-07-28T21:30:47.568Z,17.30
2022-07-28T21:33:22.386Z,17.30
2022-07-28T21:35:52.329Z,17.30
2022-07-28T21:38:22.997Z,17.40
2022-07-28T21:40:50.264Z,17.30
2022-07-28T21:43:21.416Z,17.40
2022-07-28T21:45:48.904Z,17.40
2022-07-28T21:48:20.054Z,17.40
2022-07-28T21:50:47.049Z,17.30
2022-07-28T21:53:17.114Z,17.40
2022-07-28T21:55:44.900Z,17.30
2022-07-28T21:58:14.403Z,17.40
2022-07-28T22:00:42.289Z,17.40
2022-07-28T22:03:11.729Z,17.30
2022-07-28T22:05:40.983Z,17.30
2022-07-28T22:08:09.308Z,17.20
2022-07-28T22:10:36.245Z,17.20
2022-07-28T22:13:03.234Z,17.10
2022-07-28T22:15:30.047Z,17.10
2022-07-28T22:17:59.075Z,17.10
2022-07-28T22:20:28.575Z,17.00
2022-07-28T22:22:55.789Z,17.00
2022-07-28T22:25:22.652Z,16.90
2022-07-28T22:27:49.513Z,16.80
2022-07-28T22:30:16.294Z,16.80
2022-07-28T22:32:45.619Z,16.80
2022-07-28T22:35:15.172Z,16.70
2022-07-28T22:37:42.185Z,16.60
2022-07-28T22:40:09.295Z,16.60
2022-07-28T22:42:38.369Z,16.50
2022-07-28T22:45:08.037Z,16.50
2022-07-28T22:47:34.871Z,16.50
2022-07-28T22:50:01.905Z,16.40
2022-07-28T22:52:29.974Z,16.30
2022-07-28T22:54:57.441Z,16.30
2022-07-28T22:57:26.660Z,16.30
2022-07-28T22:59:54.529Z,16.20
2022-07-28T23:02:21.424Z,16.10
2022-07-28T23:04:51.724Z,16.10
2022-07-28T23:07:19.463Z,16.10
2022-07-28T23:09:46.387Z,16.00
2022-07-28T23:12:15.729Z,15.90
2022-07-28T23:14:43.633Z,15.80
2022-07-28T23:17:10.411Z,15.80
2022-07-28T23:19:37.320Z,15.80
2022-07-28T23:22:04.925Z,15.80
2022-07-28T23:24:31.689Z,15.70
2022-07-28T23:27:00.295Z,15.70
2022-07-28T23:29:27.493Z,15.80
2022-07-28T23:31:54.355Z,15.70
2022-07-28T23:34:23.824Z,15.70
2022-07-28T23:36:50.728Z,15.70
2022-07-28T23:39:17.664Z,15.70
2022-07-28T23:41:46.134Z,15.60
2022-07-28T23:44:15.633Z,15.60
2022-07-28T23:46:42.865Z,15.50
2022-07-28T23:49:10.749Z,15.60
2022-07-28T23:51:46.929Z,15.50
2022-07-28T23:54:15.554Z,15.40
2022-07-28T23:56:43.184Z,15.40
2022-07-28T23:59:13.728Z,15.30
